Detall de PIREP

Printer-friendly versionPDF version

[2015/04/12 11:42:00]
Flight IATA:CT3232
Pilot Number:037
Company ICAO:CAT
Aircraft Type:B752/E
PAX:90
Aircraft Registration:PAX
Departing Airport: LEPA
Destination Airport: LEMD
Alternate Airport:LEVC
Online: VATSIM
Route:TURIA UN733 PRADO
Flight Level:F280
No Slew and time accel
No pause
Crash detect
Detect pilot in Cockpit between each 30 and 45 minutes
11:42 Zero fuel Weight: 161591 Lbs, Fuel Weight: 22857 Lbs
11:42 VATSIM:LEPA 121030Z 09012KT 030V140 9999 FEW018 20/09 Q1027 NOSIG
11:42 VATSIM:LEMD 121030Z 14006KT CAVOK 17/05 Q1026 NOSIG
11:44 Parking Brakes off
11:51 Take-off
11:51 Take off Weight: 183545 Lbs
11:51 Wind: 094º @ 012 Knots Heading: 060º
11:51 POS N39º 32´ 50´´ E002º 44´ 39´´
11:51 Gear Up: 188 Knots
11:51 Flaps:2 at 188 Knots
11:52 Flaps:1 at 226 Knots
11:52 Flaps:0 at 191 Knots
12:04 TOC
12:04 Fuel Weight: 18784 Lb
12:06 Wind:091º@032 Knots Heading: 247º Ground Speed: 510 Knots Altitude 28435 ft
12:18 TOD
12:18 Fuel Weight: 16441 Lb
12:21 Wind:081º@040 Knots Heading: 302º Ground Speed: 509 Knots Altitude 26069 ft
12:36 Wind:108º@017 Knots Heading: 301º Ground Speed: 411 Knots Altitude 14199 ft
12:44 Flaps:1 at 212 Knots
12:44 Flaps:2 at 194 Knots
12:45 Flaps:3 at 178 Knots
12:45 Gear Down: 177 Knots
12:46 Flaps:4 at 164 Knots
12:46 Flaps:5 at 156 Knots
12:49 TouchDown:Rate -153 ft/min Speed: 129 Knots
12:49 VATSIM:LEMD 121130Z 06004KT 9999 FEW065 18/04 Q1026 NOSIG
12:49 Land
12:49 Wind:084º@004 Knots
12:49 Heading: 178º
12:49 Flight Duration: 00:58
12:49 Landing Weight: 174760 Lbs
12:49 POS N40º 30´ 25´´ W003º 34´ 28´´
12:52 Parking brakes on
12:52 Block to Block Duration: 01:08
12:52 Final Fuel: 12881 Lbls
12:52 Spent Fuel: 9975 Lbls
12:52 Flight Length: 386 NM
12:52 TOD Land Length: 197 NM

Exportar CSV

Powered by Drupal - Modified by Danger4k